Time;durP1;ratioP1;P1;durP2;ratioP2;P2;SDS_P1;SDS_P2;PMS_P1;PMS_P2;Temp;Humidity;BMP_temperature;BMP_pressure;BME280_temperature;BME280_humidity;BME280_pressure;Samples;Min_cycle;Max_cycle;Signal;HPM_P1;HPM_P2
2023/11/28 00:01:54;;;;;;;0.30;0.20;;;3.40;99.90;;;;;;5041534;28;20717;-73
2023/11/28 00:04:23;;;;;;;0.30;0.30;;;3.30;99.90;;;;;;5047134;28;20297;-72
2023/11/28 00:06:51;;;;;;;0.30;0.30;;;3.30;99.90;;;;;;5044435;28;20195;-72
2023/11/28 00:09:18;;;;;;;0.60;0.40;;;3.30;99.90;;;;;;5047446;28;20206;-72
2023/11/28 00:11:45;;;;;;;0.40;0.40;;;3.30;99.90;;;;;;5042375;28;20207;-73
2023/11/28 00:14:12;;;;;;;1.77;0.40;;;3.30;99.90;;;;;;5041275;28;20648;-72
2023/11/28 00:16:39;;;;;;;0.55;0.43;;;3.30;99.90;;;;;;5043872;28;20200;-72
2023/11/28 00:19:05;;;;;;;0.65;0.40;;;3.40;99.90;;;;;;5041734;28;20197;-72
2023/11/28 00:21:34;;;;;;;0.70;0.30;;;3.40;99.90;;;;;;5047721;28;20209;-73
2023/11/28 00:24:01;;;;;;;0.32;0.30;;;3.30;99.90;;;;;;5042537;28;20218;-73
2023/11/28 00:26:28;;;;;;;0.30;0.28;;;3.40;99.90;;;;;;5043389;28;20201;-73
2023/11/28 00:28:55;;;;;;;0.40;0.30;;;3.30;99.90;;;;;;5046961;28;20680;-73
2023/11/28 00:31:22;;;;;;;0.30;0.20;;;3.30;99.90;;;;;;5047705;28;20638;-73
2023/11/28 00:33:49;;;;;;;0.43;0.43;;;3.40;99.90;;;;;;5045708;28;20219;-73
2023/11/28 00:36:16;;;;;;;0.30;0.30;;;3.40;99.90;;;;;;5044367;28;20258;-73
2023/11/28 00:38:44;;;;;;;0.30;0.30;;;3.40;99.90;;;;;;5046061;28;20225;-73
2023/11/28 00:41:12;;;;;;;0.50;0.50;;;3.40;99.90;;;;;;5046911;28;20213;-73
2023/11/28 00:43:39;;;;;;;0.50;0.50;;;3.40;99.90;;;;;;5047341;28;20212;-73
2023/11/28 00:46:08;;;;;;;0.50;0.50;;;3.40;99.90;;;;;;5043793;28;20193;-73
2023/11/28 00:48:34;;;;;;;0.43;0.38;;;3.50;99.90;;;;;;5040789;28;20303;-73
2023/11/28 00:51:01;;;;;;;0.40;0.30;;;3.40;99.90;;;;;;5040735;28;20570;-73
2023/11/28 00:53:29;;;;;;;0.68;0.68;;;3.40;99.90;;;;;;5048185;28;20205;-73
2023/11/28 00:55:57;;;;;;;0.50;0.30;;;3.50;99.90;;;;;;5045832;28;20217;-73
2023/11/28 00:58:24;;;;;;;0.30;0.30;;;3.50;99.90;;;;;;5046596;28;20660;-73
2023/11/28 01:00:50;;;;;;;0.40;0.40;;;3.60;99.90;;;;;;5041705;28;20662;-73
2023/11/28 01:03:17;;;;;;;0.65;0.55;;;3.60;99.90;;;;;;5042915;28;20243;-73
2023/11/28 01:05:44;;;;;;;0.30;0.30;;;3.50;99.90;;;;;;5041771;28;20639;-73
2023/11/28 01:08:11;;;;;;;0.50;0.40;;;3.40;99.90;;;;;;5046226;28;20569;-73
2023/11/28 01:10:38;;;;;;;0.63;0.60;;;3.40;99.90;;;;;;5045794;28;20221;-73
2023/11/28 01:13:07;;;;;;;0.57;0.52;;;3.50;99.90;;;;;;5042717;28;20838;-73
2023/11/28 01:15:34;;;;;;;0.93;0.57;;;3.50;99.90;;;;;;5037969;28;21070;-73
2023/11/28 01:18:00;;;;;;;0.60;0.30;;;3.50;99.90;;;;;;5046424;28;20211;-73
2023/11/28 01:20:27;;;;;;;1.02;0.57;;;3.50;99.90;;;;;;5045617;28;20204;-73
2023/11/28 01:22:54;;;;;;;0.50;0.47;;;3.60;99.90;;;;;;5046865;28;20212;-73
2023/11/28 01:25:21;;;;;;;0.50;0.50;;;3.50;99.90;;;;;;5046343;28;20204;-73
2023/11/28 01:27:48;;;;;;;0.40;0.40;;;3.50;99.90;;;;;;5040538;28;20206;-73
2023/11/28 01:30:17;;;;;;;0.50;0.40;;;3.60;99.90;;;;;;5046227;28;20226;-73
2023/11/28 01:32:44;;;;;;;0.60;0.50;;;3.60;99.90;;;;;;5046269;28;20226;-73
2023/11/28 01:35:11;;;;;;;0.73;0.40;;;3.60;99.90;;;;;;5046611;28;20213;-74
2023/11/28 01:37:38;;;;;;;0.50;0.45;;;3.50;99.90;;;;;;5041927;28;20206;-73
2023/11/28 01:40:10;;;;;;;0.50;0.35;;;3.50;99.90;;;;;;5042691;28;20207;-73
2023/11/28 01:42:36;;;;;;;0.40;0.40;;;3.60;99.90;;;;;;5040533;28;20207;-73
2023/11/28 01:45:04;;;;;;;0.75;0.32;;;3.50;99.90;;;;;;5045749;28;20695;-73
2023/11/28 01:47:33;;;;;;;0.38;0.22;;;3.60;99.90;;;;;;5047351;28;20209;-73
2023/11/28 01:50:00;;;;;;;0.88;0.50;;;3.60;99.90;;;;;;5043939;28;20313;-73
2023/11/28 01:52:30;;;;;;;0.50;0.50;;;3.60;99.90;;;;;;5046145;28;20206;-73
2023/11/28 01:54:58;;;;;;;0.30;0.30;;;3.60;99.90;;;;;;5043771;28;20677;-73
2023/11/28 01:57:25;;;;;;;0.77;0.68;;;3.60;99.90;;;;;;5045796;28;20573;-73
2023/11/28 01:59:52;;;;;;;0.80;0.45;;;3.70;99.90;;;;;;5032291;28;20227;-73
2023/11/28 02:02:19;;;;;;;0.50;0.50;;;3.80;99.90;;;;;;5044514;28;20208;-73
2023/11/28 02:04:48;;;;;;;1.30;0.50;;;3.80;99.90;;;;;;5039150;28;20229;-73
2023/11/28 02:07:15;;;;;;;0.30;0.20;;;3.80;99.90;;;;;;5044297;28;20240;-72
2023/11/28 02:09:43;;;;;;;0.47;0.47;;;3.80;99.90;;;;;;5041129;28;20706;-73
2023/11/28 02:12:11;;;;;;;0.93;0.57;;;3.80;99.90;;;;;;5044041;28;20292;-73
2023/11/28 02:14:43;;;;;;;0.40;0.40;;;3.80;99.90;;;;;;5043700;28;20192;-73
2023/11/28 02:17:10;;;;;;;0.30;0.30;;;3.80;99.90;;;;;;5039755;28;20194;-73
2023/11/28 02:19:37;;;;;;;0.60;0.43;;;3.70;99.90;;;;;;5044710;28;20260;-73
2023/11/28 02:22:06;;;;;;;0.73;0.50;;;3.70;99.90;;;;;;5040393;28;20200;-73
2023/11/28 02:24:39;;;;;;;0.60;0.57;;;3.80;99.90;;;;;;5045308;28;20561;-73
2023/11/28 02:27:07;;;;;;;0.40;0.25;;;3.80;99.90;;;;;;5044205;28;20207;-73
2023/11/28 02:29:34;;;;;;;0.45;0.38;;;3.80;99.90;;;;;;5042864;28;20210;-73
2023/11/28 02:32:01;;;;;;;0.45;0.45;;;3.90;99.90;;;;;;5041559;28;20612;-73
2023/11/28 02:34:28;;;;;;;1.23;0.68;;;3.80;99.90;;;;;;5041680;28;20230;-73
2023/11/28 02:36:55;;;;;;;0.43;0.43;;;3.90;99.90;;;;;;5045111;28;20559;-73
2023/11/28 02:39:22;;;;;;;0.70;0.43;;;3.80;99.90;;;;;;5042343;28;20665;-73
2023/11/28 02:41:48;;;;;;;1.52;0.60;;;3.80;99.90;;;;;;5046208;28;20623;-73
2023/11/28 02:44:16;;;;;;;0.70;0.45;;;3.90;99.90;;;;;;5043589;28;20649;-72
2023/11/28 02:46:42;;;;;;;0.40;0.40;;;3.90;99.90;;;;;;5042116;28;20270;-72
2023/11/28 02:49:09;;;;;;;0.50;0.50;;;3.90;99.90;;;;;;5047829;28;20688;-72
2023/11/28 02:51:36;;;;;;;0.40;0.40;;;3.90;99.90;;;;;;5045056;28;20583;-72
2023/11/28 02:54:03;;;;;;;0.43;0.40;;;4.00;99.90;;;;;;5052371;28;20616;-73
2023/11/28 02:56:31;;;;;;;0.50;0.50;;;3.90;99.90;;;;;;5042280;28;20230;-72
2023/11/28 02:58:58;;;;;;;0.32;0.32;;;3.90;99.90;;;;;;5048285;28;20292;-73
2023/11/28 03:01:27;;;;;;;0.95;0.60;;;3.90;99.90;;;;;;5045703;28;20209;-72
2023/11/28 03:03:55;;;;;;;1.15;0.77;;;3.90;99.90;;;;;;5041696;28;20693;-73
2023/11/28 03:06:22;;;;;;;0.60;0.43;;;4.00;99.90;;;;;;5049151;28;20212;-72
2023/11/28 03:08:51;;;;;;;1.50;0.47;;;4.00;99.90;;;;;;5047134;28;20252;-73
2023/11/28 03:11:18;;;;;;;0.63;0.50;;;4.00;99.90;;;;;;5044872;28;20219;-72
2023/11/28 03:13:45;;;;;;;0.50;0.45;;;4.10;99.90;;;;;;5045676;28;20204;-73
2023/11/28 03:16:13;;;;;;;0.30;0.30;;;4.10;99.90;;;;;;5046313;28;20269;-72
2023/11/28 03:18:42;;;;;;;0.80;0.77;;;4.20;99.90;;;;;;5049349;28;20209;-72
2023/11/28 03:21:09;;;;;;;0.85;0.65;;;4.10;99.90;;;;;;5050788;28;20199;-73
2023/11/28 03:23:36;;;;;;;0.63;0.30;;;4.10;99.90;;;;;;5047164;28;20287;-73
2023/11/28 03:26:05;;;;;;;0.50;0.50;;;4.10;99.90;;;;;;5048875;28;20233;-72
2023/11/28 03:28:32;;;;;;;0.57;0.50;;;4.20;99.90;;;;;;5046475;28;20290;-73
2023/11/28 03:30:59;;;;;;;0.82;0.40;;;4.10;99.90;;;;;;5048465;28;20324;-73
2023/11/28 03:33:26;;;;;;;0.40;0.30;;;4.10;99.90;;;;;;5047637;28;20234;-73
2023/11/28 03:35:54;;;;;;;0.30;0.30;;;4.10;99.90;;;;;;5044549;28;20196;-73
2023/11/28 03:38:22;;;;;;;0.40;0.40;;;4.10;99.90;;;;;;5043010;28;20621;-73
2023/11/28 03:40:50;;;;;;;0.52;0.47;;;4.00;99.90;;;;;;5048662;28;20204;-73
2023/11/28 03:43:18;;;;;;;0.80;0.45;;;4.00;99.90;;;;;;5044685;28;20302;-73
2023/11/28 03:45:46;;;;;;;0.30;0.20;;;4.00;99.90;;;;;;5044870;28;20261;-73
2023/11/28 03:48:13;;;;;;;0.30;0.30;;;4.10;99.90;;;;;;5046658;28;20217;-73
2023/11/28 03:50:40;;;;;;;0.73;0.73;;;4.00;99.90;;;;;;5048354;28;20233;-73
2023/11/28 03:53:08;;;;;;;0.30;0.30;;;4.00;99.90;;;;;;5048313;28;20208;-73
2023/11/28 03:55:35;;;;;;;1.05;0.50;;;4.10;99.90;;;;;;5046758;28;20598;-73
2023/11/28 03:58:03;;;;;;;0.65;0.60;;;4.00;99.90;;;;;;5037578;28;20265;-73
2023/11/28 04:00:30;;;;;;;0.50;0.43;;;4.10;99.90;;;;;;5048058;28;20699;-73
2023/11/28 04:02:57;;;;;;;0.43;0.43;;;4.10;99.90;;;;;;5041817;28;20208;-73
2023/11/28 04:05:23;;;;;;;0.70;0.50;;;4.10;99.90;;;;;;5041938;28;20310;-73
2023/11/28 04:07:50;;;;;;;0.55;0.35;;;4.10;99.90;;;;;;5047083;28;20203;-73
2023/11/28 04:10:18;;;;;;;0.40;0.40;;;4.10;99.90;;;;;;5045803;28;20207;-73
2023/11/28 04:12:45;;;;;;;0.50;0.38;;;4.10;99.90;;;;;;5045896;28;20199;-73
2023/11/28 04:15:14;;;;;;;0.40;0.30;;;4.20;99.90;;;;;;5048231;28;20207;-73
2023/11/28 04:17:41;;;;;;;0.80;0.60;;;4.10;99.90;;;;;;5046070;28;20290;-73
2023/11/28 04:20:09;;;;;;;0.40;0.30;;;4.10;99.90;;;;;;5048042;28;20209;-73
2023/11/28 04:22:37;;;;;;;0.80;0.60;;;4.20;99.90;;;;;;5043584;28;20232;-73
2023/11/28 04:25:05;;;;;;;0.30;0.30;;;4.20;99.90;;;;;;5044430;28;20215;-73
2023/11/28 04:27:34;;;;;;;0.30;0.30;;;4.10;99.90;;;;;;5044420;28;20249;-73
2023/11/28 04:30:02;;;;;;;0.50;0.30;;;4.00;99.90;;;;;;5045304;28;20264;-73
2023/11/28 04:32:29;;;;;;;0.40;0.40;;;4.10;99.90;;;;;;5045252;28;20234;-73
2023/11/28 04:34:56;;;;;;;0.40;0.40;;;4.10;99.90;;;;;;5044852;28;20568;-73
2023/11/28 04:37:24;;;;;;;0.47;0.47;;;4.10;99.90;;;;;;5043515;28;20206;-73
2023/11/28 04:39:51;;;;;;;0.30;0.20;;;4.10;99.90;;;;;;5046703;28;20593;-73
2023/11/28 04:42:18;;;;;;;0.43;0.40;;;4.10;99.90;;;;;;5047425;28;20207;-73
2023/11/28 04:44:46;;;;;;;0.40;0.30;;;4.10;99.90;;;;;;5047490;28;20559;-73
2023/11/28 04:47:14;;;;;;;0.30;0.30;;;4.00;99.90;;;;;;5046810;28;20226;-73
2023/11/28 04:49:41;;;;;;;0.60;0.50;;;4.00;99.90;;;;;;5043876;28;20199;-73
2023/11/28 04:52:08;;;;;;;0.50;0.47;;;4.00;99.90;;;;;;5043811;28;20230;-73
2023/11/28 04:54:35;;;;;;;0.30;0.30;;;4.00;99.90;;;;;;5047280;28;20647;-73
2023/11/28 04:57:02;;;;;;;0.38;0.30;;;4.00;99.90;;;;;;5040336;28;20210;-73
2023/11/28 04:59:29;;;;;;;0.30;0.30;;;4.00;99.90;;;;;;5044054;28;20225;-73
2023/11/28 05:01:57;;;;;;;0.57;0.40;;;4.00;99.90;;;;;;5046260;28;20201;-73
2023/11/28 05:04:24;;;;;;;0.40;0.40;;;4.00;99.90;;;;;;5039169;28;20199;-73
2023/11/28 05:06:51;;;;;;;0.30;0.30;;;3.90;99.90;;;;;;5045979;28;20547;-73
2023/11/28 05:09:18;;;;;;;0.60;0.40;;;4.00;99.90;;;;;;5045781;28;20209;-73
2023/11/28 05:11:45;;;;;;;0.40;0.30;;;4.00;99.90;;;;;;5047198;28;20211;-73
2023/11/28 05:14:12;;;;;;;0.55;0.35;;;3.90;99.90;;;;;;5045200;28;20202;-73
2023/11/28 05:16:39;;;;;;;0.95;0.57;;;3.90;99.90;;;;;;5045105;28;20288;-73
2023/11/28 05:19:07;;;;;;;0.30;0.30;;;3.90;99.90;;;;;;5044385;28;20229;-73
2023/11/28 05:21:34;;;;;;;0.40;0.40;;;3.90;99.90;;;;;;5045452;28;20228;-73
2023/11/28 05:24:01;;;;;;;0.30;0.30;;;3.90;99.90;;;;;;5044668;28;20217;-73
2023/11/28 05:26:28;;;;;;;0.60;0.40;;;3.90;99.90;;;;;;5044397;28;20553;-73
2023/11/28 05:28:55;;;;;;;0.40;0.40;;;4.00;99.90;;;;;;5041229;28;20700;-73
2023/11/28 05:31:21;;;;;;;0.43;0.43;;;3.90;99.90;;;;;;5040647;28;20253;-73
2023/11/28 05:33:48;;;;;;;0.60;0.60;;;3.90;99.90;;;;;;5044177;28;20201;-73
2023/11/28 05:36:16;;;;;;;1.38;0.73;;;3.90;99.90;;;;;;5046563;28;20198;-73
2023/11/28 05:38:43;;;;;;;0.95;0.95;;;3.90;99.90;;;;;;5045159;28;20198;-73
2023/11/28 05:41:10;;;;;;;0.75;0.50;;;4.00;99.90;;;;;;5042505;28;20633;-73
2023/11/28 05:43:37;;;;;;;0.52;0.40;;;3.90;99.90;;;;;;5045643;28;20543;-72
2023/11/28 05:46:04;;;;;;;1.00;0.65;;;3.90;99.90;;;;;;5045097;28;20212;-73
2023/11/28 05:48:31;;;;;;;0.93;0.80;;;3.80;99.90;;;;;;5048129;28;20206;-76
2023/11/28 05:50:58;;;;;;;0.93;0.93;;;3.80;99.90;;;;;;5045384;28;20205;-76
2023/11/28 05:53:26;;;;;;;0.70;0.70;;;3.70;99.90;;;;;;5039705;28;20607;-78
2023/11/28 05:55:53;;;;;;;0.75;0.75;;;3.70;99.90;;;;;;5043243;28;20207;-78
2023/11/28 05:58:20;;;;;;;0.60;0.57;;;3.60;99.90;;;;;;5044606;28;20205;-77
2023/11/28 06:00:49;;;;;;;4.53;1.40;;;3.60;99.90;;;;;;5039427;28;20219;-83
2023/11/28 06:03:16;;;;;;;1.00;0.90;;;3.60;99.90;;;;;;5044530;28;20220;-83
2023/11/28 06:05:43;;;;;;;3.88;1.70;;;3.50;99.90;;;;;;5044400;28;20387;-73
2023/11/28 06:08:10;;;;;;;1.27;1.17;;;3.50;99.90;;;;;;5041056;28;20210;-72
2023/11/28 06:10:38;;;;;;;0.68;0.60;;;3.40;99.90;;;;;;5040519;28;20208;-73
2023/11/28 06:13:05;;;;;;;1.60;1.50;;;3.50;99.90;;;;;;5042179;28;20228;-76
2023/11/28 06:15:32;;;;;;;1.52;1.40;;;3.40;99.90;;;;;;5039941;28;20204;-78
2023/11/28 06:17:59;;;;;;;1.58;1.10;;;3.40;99.90;;;;;;5044953;28;20219;-77
2023/11/28 06:20:26;;;;;;;2.47;1.52;;;3.40;99.90;;;;;;5038849;28;20204;-76
2023/11/28 06:22:53;;;;;;;1.45;1.35;;;3.30;99.90;;;;;;5046081;28;20213;-79
2023/11/28 06:25:20;;;;;;;0.45;0.45;;;3.30;99.90;;;;;;5046151;28;20212;-84
2023/11/28 06:27:48;;;;;;;2.00;1.80;;;3.40;99.90;;;;;;5040857;28;20702;-84
2023/11/28 06:30:15;;;;;;;1.23;1.13;;;3.50;99.90;;;;;;5040741;28;20403;-85
2023/11/28 06:32:42;;;;;;;1.48;1.38;;;3.40;99.90;;;;;;5045971;28;20228;-82
2023/11/28 06:35:10;;;;;;;1.05;0.90;;;3.30;99.90;;;;;;5041677;28;20299;-81
2023/11/28 06:37:38;;;;;;;1.10;1.02;;;3.30;99.90;;;;;;5031852;28;20253;-80
2023/11/28 06:40:05;;;;;;;1.90;1.23;;;3.20;99.90;;;;;;5039074;28;20204;-80
2023/11/28 06:42:32;;;;;;;0.47;0.32;;;3.20;99.90;;;;;;5031808;28;20255;-76
2023/11/28 06:45:02;;;;;;;0.93;0.93;;;3.20;99.90;;;;;;5043269;28;20212;-76
2023/11/28 06:47:28;;;;;;;0.93;0.60;;;3.20;99.90;;;;;;5042961;28;20756;-77
2023/11/28 06:49:56;;;;;;;1.02;0.82;;;3.10;99.90;;;;;;5045127;28;20670;-78
2023/11/28 06:52:23;;;;;;;0.70;0.70;;;3.10;99.90;;;;;;5040784;28;20259;-78
2023/11/28 06:54:50;;;;;;;1.30;1.00;;;3.10;99.90;;;;;;5039725;28;20204;-78
2023/11/28 06:57:17;;;;;;;1.15;0.98;;;3.10;99.90;;;;;;5036833;28;20231;-78
2023/11/28 06:59:44;;;;;;;0.60;0.50;;;3.10;99.90;;;;;;5053152;28;20221;-78
2023/11/28 07:02:12;;;;;;;0.60;0.35;;;2.80;99.90;;;;;;5046892;28;20210;-77
2023/11/28 07:04:39;;;;;;;0.30;0.30;;;2.50;99.90;;;;;;5038928;28;20204;-77
2023/11/28 07:07:06;;;;;;;0.40;0.30;;;2.30;99.90;;;;;;5034273;28;20201;-77
2023/11/28 07:09:35;;;;;;;0.45;0.45;;;2.10;99.90;;;;;;5042178;28;20290;-77
2023/11/28 07:12:02;;;;;;;0.45;0.40;;;1.90;99.90;;;;;;5038498;28;20231;-77
2023/11/28 07:14:29;;;;;;;0.70;0.70;;;1.90;99.90;;;;;;5035595;28;20204;-77
2023/11/28 07:16:56;;;;;;;0.95;0.77;;;1.80;99.90;;;;;;5036402;28;20210;-77
2023/11/28 07:19:24;;;;;;;0.80;0.73;;;1.70;99.90;;;;;;5042549;28;20204;-77
2023/11/28 07:21:51;;;;;;;0.55;0.55;;;1.70;99.90;;;;;;5046259;28;20204;-77
2023/11/28 07:24:18;;;;;;;0.38;0.38;;;1.70;99.90;;;;;;5037270;28;20284;-77
2023/11/28 07:26:45;;;;;;;0.60;0.60;;;1.70;99.90;;;;;;5044411;28;20197;-77
2023/11/28 07:29:12;;;;;;;0.70;0.50;;;1.70;99.90;;;;;;5037515;28;20212;-77
2023/11/28 07:31:39;;;;;;;1.02;0.93;;;1.60;99.90;;;;;;5038800;28;20216;-77
2023/11/28 07:34:06;;;;;;;0.50;0.50;;;1.60;99.90;;;;;;5046442;28;20207;-77
2023/11/28 07:36:34;;;;;;;0.80;0.80;;;1.50;99.90;;;;;;5042844;28;20202;-78
2023/11/28 07:39:03;;;;;;;0.50;0.50;;;1.50;99.90;;;;;;5046438;28;20210;-77
2023/11/28 07:41:30;;;;;;;0.77;0.50;;;1.50;99.90;;;;;;5045629;28;20208;-77
2023/11/28 07:43:57;;;;;;;1.73;1.63;;;1.50;99.90;;;;;;5041872;28;20203;-77
2023/11/28 07:46:24;;;;;;;0.50;0.50;;;1.50;99.90;;;;;;5046206;28;20574;-77
2023/11/28 07:48:51;;;;;;;0.52;0.52;;;1.60;99.90;;;;;;5047108;28;20260;-77
2023/11/28 07:51:18;;;;;;;0.50;0.47;;;1.50;99.90;;;;;;5034405;28;20227;-77
2023/11/28 07:53:46;;;;;;;4.63;0.82;;;1.50;99.90;;;;;;5039291;28;20228;-76
2023/11/28 07:56:13;;;;;;;0.50;0.50;;;1.40;99.90;;;;;;5038145;28;20212;-77
2023/11/28 07:58:40;;;;;;;1.05;0.95;;;1.50;99.90;;;;;;5040881;28;20283;-77
2023/11/28 08:01:07;;;;;;;1.25;0.90;;;1.50;99.90;;;;;;5040175;28;20207;-77
2023/11/28 08:03:34;;;;;;;0.77;0.77;;;1.50;99.90;;;;;;5036858;28;20202;-77
2023/11/28 08:06:03;;;;;;;0.63;0.63;;;1.50;99.90;;;;;;5036961;28;20207;-77
2023/11/28 08:08:30;;;;;;;0.70;0.70;;;1.40;99.90;;;;;;5035903;28;20674;-76
2023/11/28 08:10:59;;;;;;;0.70;0.70;;;1.30;99.90;;;;;;5042219;28;20210;-76
2023/11/28 08:13:26;;;;;;;0.60;0.60;;;1.40;99.90;;;;;;5046057;28;20223;-76
2023/11/28 08:15:53;;;;;;;0.80;0.80;;;1.30;99.90;;;;;;5036255;28;20211;-76
2023/11/28 08:18:20;;;;;;;0.70;0.70;;;1.30;99.90;;;;;;5029475;28;20676;-77
2023/11/28 08:20:47;;;;;;;0.68;0.68;;;1.30;99.90;;;;;;5039775;28;20204;-76
2023/11/28 08:23:14;;;;;;;0.73;0.73;;;1.30;99.90;;;;;;5040010;28;20594;-76
2023/11/28 08:25:40;;;;;;;0.50;0.50;;;1.20;99.90;;;;;;5040896;28;20204;-76
2023/11/28 08:28:08;;;;;;;0.80;0.63;;;1.20;99.90;;;;;;5040499;28;20287;-76
2023/11/28 08:30:36;;;;;;;1.00;0.70;;;1.20;99.90;;;;;;5042448;28;20287;-76
2023/11/28 08:33:03;;;;;;;0.63;0.63;;;1.20;99.90;;;;;;5033860;28;20314;-76
2023/11/28 08:35:29;;;;;;;0.60;0.60;;;1.10;99.90;;;;;;5040934;28;20224;-76
2023/11/28 08:37:56;;;;;;;0.80;0.80;;;1.20;99.90;;;;;;5044228;28;20208;-76
2023/11/28 08:40:22;;;;;;;1.23;1.13;;;1.10;99.90;;;;;;5043061;28;20202;-75
2023/11/28 08:42:49;;;;;;;0.83;0.80;;;1.20;99.90;;;;;;5036234;28;20638;-75
2023/11/28 08:45:17;;;;;;;0.98;0.88;;;1.10;99.90;;;;;;5043057;28;20622;-75
2023/11/28 08:47:44;;;;;;;0.98;0.98;;;1.10;99.90;;;;;;5043500;28;20207;-75
2023/11/28 08:50:12;;;;;;;0.43;0.43;;;1.10;99.90;;;;;;5042510;28;20215;-76
2023/11/28 08:52:39;;;;;;;2.15;0.98;;;1.20;99.90;;;;;;5037870;28;20216;-75
2023/11/28 08:55:07;;;;;;;0.70;0.70;;;1.20;99.90;;;;;;5044089;28;20215;-75
2023/11/28 08:57:34;;;;;;;1.10;1.00;;;1.20;99.90;;;;;;5034527;28;20670;-75
2023/11/28 09:00:02;;;;;;;0.80;0.80;;;1.20;99.90;;;;;;5038698;28;20212;-76
2023/11/28 09:02:30;;;;;;;0.82;0.75;;;1.10;99.90;;;;;;5036547;28;20207;-74
2023/11/28 09:04:57;;;;;;;0.75;0.75;;;1.10;99.90;;;;;;5040454;28;20275;-75
2023/11/28 09:07:24;;;;;;;0.65;0.65;;;1.10;99.90;;;;;;5043953;28;20294;-74
2023/11/28 09:09:51;;;;;;;0.55;0.52;;;1.10;99.90;;;;;;5041339;28;20558;-75
2023/11/28 09:12:18;;;;;;;0.70;0.70;;;1.10;99.90;;;;;;5046232;28;20306;-74
2023/11/28 09:14:47;;;;;;;0.73;0.47;;;1.10;99.90;;;;;;5045214;28;20208;-75
2023/11/28 09:17:14;;;;;;;0.75;0.75;;;1.00;99.90;;;;;;5046776;28;20216;-72
2023/11/28 09:19:43;;;;;;;0.60;0.60;;;1.10;99.90;;;;;;5038270;28;20245;-72
2023/11/28 09:22:09;;;;;;;1.13;1.13;;;1.00;99.90;;;;;;5041267;28;20668;-72
2023/11/28 09:24:36;;;;;;;0.60;0.60;;;1.10;99.90;;;;;;5043816;28;20200;-72
2023/11/28 09:27:05;;;;;;;0.90;0.80;;;1.10;99.90;;;;;;5045415;28;20618;-72
2023/11/28 09:29:31;;;;;;;0.90;0.90;;;1.00;99.90;;;;;;5041056;28;20634;-72
2023/11/28 09:31:58;;;;;;;0.95;0.50;;;1.00;99.90;;;;;;5044612;28;20196;-72
2023/11/28 09:34:25;;;;;;;0.77;0.77;;;1.00;99.90;;;;;;5043488;28;20670;-73
2023/11/28 09:36:54;;;;;;;1.40;0.80;;;1.00;99.90;;;;;;5041021;28;20200;-73
2023/11/28 09:39:23;;;;;;;0.65;0.63;;;0.90;99.90;;;;;;5043825;28;20201;-72
2023/11/28 09:41:51;;;;;;;1.00;0.90;;;1.00;99.90;;;;;;5041342;28;20251;-73
2023/11/28 09:44:17;;;;;;;0.90;0.90;;;1.00;99.90;;;;;;5044732;28;20200;-73
2023/11/28 09:46:48;;;;;;;1.05;1.00;;;0.90;99.90;;;;;;5037971;28;20189;-71
2023/11/28 09:49:18;;;;;;;1.20;0.95;;;0.90;99.90;;;;;;5049675;28;20389;-72
2023/11/28 09:51:46;;;;;;;0.40;0.40;;;0.90;99.90;;;;;;5042063;28;20228;-72
2023/11/28 09:54:16;;;;;;;0.70;0.70;;;0.90;99.90;;;;;;5043580;28;20224;-72
2023/11/28 09:56:44;;;;;;;0.70;0.70;;;1.00;99.90;;;;;;5038725;28;20209;-72
2023/11/28 09:59:13;;;;;;;0.77;0.77;;;0.90;99.90;;;;;;5041292;28;20625;-72
2023/11/28 10:01:44;;;;;;;0.80;0.80;;;0.90;99.90;;;;;;5039119;28;20606;-72
2023/11/28 10:04:11;;;;;;;1.35;1.25;;;0.90;99.90;;;;;;5035603;28;20201;-72
2023/11/28 10:06:42;;;;;;;0.95;0.95;;;0.90;99.90;;;;;;5038345;28;20572;-72
2023/11/28 10:09:11;;;;;;;1.20;0.98;;;0.90;99.90;;;;;;5036677;28;20208;-73
2023/11/28 10:11:43;;;;;;;1.10;1.00;;;0.90;99.90;;;;;;5042300;28;20200;-73
2023/11/28 10:14:10;;;;;;;1.27;1.27;;;0.90;99.90;;;;;;5032503;28;20240;-73
2023/11/28 10:16:44;;;;;;;0.90;0.90;;;1.00;99.90;;;;;;5042413;28;20624;-73
2023/11/28 10:19:11;;;;;;;1.45;1.00;;;0.90;99.90;;;;;;5039380;28;20212;-73
2023/11/28 10:21:39;;;;;;;1.17;1.10;;;0.90;99.90;;;;;;5042527;28;20863;-73
2023/11/28 10:24:08;;;;;;;1.15;1.15;;;0.90;99.90;;;;;;5034250;28;20222;-73
2023/11/28 10:26:35;;;;;;;0.88;0.85;;;0.90;99.90;;;;;;5036059;28;20573;-73
2023/11/28 10:29:05;;;;;;;1.38;1.30;;;0.90;99.90;;;;;;5042928;28;20227;-73
2023/11/28 10:31:36;;;;;;;0.70;0.70;;;0.90;99.90;;;;;;5042601;28;20569;-73
2023/11/28 10:34:08;;;;;;;1.08;0.90;;;0.90;99.90;;;;;;5033840;28;20689;-72
2023/11/28 10:36:42;;;;;;;1.60;1.10;;;0.90;99.90;;;;;;5034739;28;20212;-72
2023/11/28 10:39:10;;;;;;;0.65;0.63;;;0.90;99.90;;;;;;5038778;28;20219;-73
2023/11/28 10:41:38;;;;;;;1.10;1.00;;;0.90;99.90;;;;;;5040137;28;20199;-73
2023/11/28 10:44:06;;;;;;;1.00;1.00;;;1.00;99.90;;;;;;5043946;28;20443;-73
2023/11/28 10:46:35;;;;;;;1.23;1.15;;;1.00;99.90;;;;;;5040315;28;20203;-73
2023/11/28 10:49:02;;;;;;;1.73;1.63;;;1.00;99.90;;;;;;5038117;28;20215;-72
2023/11/28 10:51:30;;;;;;;1.90;1.63;;;1.00;99.90;;;;;;5038682;28;20208;-72
2023/11/28 10:54:07;;;;;;;2.03;1.70;;;0.90;99.90;;;;;;5043620;28;20587;-73
2023/11/28 10:56:42;;;;;;;1.55;1.45;;;0.90;99.90;;;;;;5039944;28;20701;-72
2023/11/28 10:59:17;;;;;;;2.22;1.70;;;0.90;99.90;;;;;;5042066;28;20213;-73
2023/11/28 11:01:46;;;;;;;1.48;1.38;;;0.90;99.90;;;;;;5040703;28;20552;-72
2023/11/28 11:04:13;;;;;;;1.30;1.20;;;0.90;99.90;;;;;;5043864;28;20204;-74
2023/11/28 11:06:41;;;;;;;1.33;1.10;;;0.90;99.90;;;;;;5042403;28;20208;-75
2023/11/28 11:09:09;;;;;;;1.50;1.40;;;0.80;99.90;;;;;;5039118;28;20563;-75
2023/11/28 11:11:37;;;;;;;1.90;1.80;;;0.80;99.90;;;;;;5048452;28;20302;-75
2023/11/28 11:14:14;;;;;;;1.63;1.48;;;0.80;99.90;;;;;;5041888;28;20228;-74
2023/11/28 11:16:46;;;;;;;2.15;2.05;;;0.80;99.90;;;;;;5036355;28;20579;-78
2023/11/28 11:19:14;;;;;;;2.33;1.30;;;0.80;99.90;;;;;;5048333;28;20208;-80
2023/11/28 11:21:48;;;;;;;1.27;1.13;;;0.80;99.90;;;;;;5042879;28;20218;-79
2023/11/28 11:24:19;;;;;;;1.55;1.45;;;0.70;99.90;;;;;;5039128;28;20231;-81
2023/11/28 11:26:49;;;;;;;2.65;2.45;;;0.80;99.90;;;;;;5046638;28;20728;-80
2023/11/28 11:29:40;;;;;;;2.30;1.30;;;0.90;99.90;;;;;;5049010;28;20246;-78
2023/11/28 11:32:13;;;;;;;1.02;0.82;;;0.70;99.90;;;;;;5047762;28;20219;-74
2023/11/28 11:34:44;;;;;;;1.73;1.63;;;0.70;99.90;;;;;;5046155;28;20731;-74
2023/11/28 11:37:13;;;;;;;1.75;1.65;;;0.70;99.90;;;;;;5039762;28;20197;-74
2023/11/28 11:39:41;;;;;;;1.13;1.00;;;0.70;99.90;;;;;;5045999;28;20208;-74
2023/11/28 11:42:10;;;;;;;1.75;1.65;;;0.60;99.90;;;;;;5048627;28;20626;-74
2023/11/28 11:44:41;;;;;;;1.60;1.50;;;0.60;99.90;;;;;;5049667;28;20204;-74
2023/11/28 11:47:19;;;;;;;1.52;1.42;;;0.70;99.90;;;;;;5049538;28;20406;-73
2023/11/28 11:49:46;;;;;;;1.48;1.17;;;0.70;99.90;;;;;;5049001;28;20280;-76
2023/11/28 11:52:14;;;;;;;1.80;1.70;;;0.70;99.90;;;;;;5043841;28;20219;-74
2023/11/28 11:54:45;;;;;;;2.30;2.10;;;0.70;99.90;;;;;;5047971;28;20763;-75
2023/11/28 11:57:13;;;;;;;1.73;1.63;;;0.70;99.90;;;;;;5046505;28;20652;-73
2023/11/28 11:59:42;;;;;;;1.45;1.35;;;0.60;99.90;;;;;;5041143;28;20287;-73
2023/11/28 12:02:09;;;;;;;0.80;0.80;;;0.70;99.90;;;;;;5038873;28;20205;-74
2023/11/28 12:04:42;;;;;;;3.08;1.55;;;0.70;99.90;;;;;;5035291;28;20209;-74
2023/11/28 12:07:10;;;;;;;1.33;1.23;;;0.70;99.90;;;;;;5040201;28;20223;-74
2023/11/28 12:09:37;;;;;;;1.33;1.23;;;0.70;99.90;;;;;;5046951;28;20206;-74
2023/11/28 12:12:05;;;;;;;2.28;1.70;;;0.60;99.90;;;;;;5048064;28;20222;-74
2023/11/28 12:14:32;;;;;;;2.15;1.67;;;0.70;99.90;;;;;;5047717;28;20235;-73
2023/11/28 12:17:01;;;;;;;1.60;1.50;;;0.70;99.90;;;;;;5041224;28;20971;-74
2023/11/28 12:19:29;;;;;;;1.60;1.50;;;0.70;99.90;;;;;;5047039;28;20696;-74
2023/11/28 12:21:57;;;;;;;2.10;2.00;;;0.60;99.90;;;;;;5046681;28;20646;-73
2023/11/28 12:24:24;;;;;;;2.88;2.17;;;0.60;99.90;;;;;;5046913;28;20207;-74
2023/11/28 12:26:51;;;;;;;1.67;1.38;;;0.60;99.90;;;;;;5045266;28;20662;-73
2023/11/28 12:29:18;;;;;;;3.95;2.60;;;0.60;99.90;;;;;;5045104;28;20211;-74
2023/11/28 12:31:45;;;;;;;1.90;1.65;;;0.60;99.90;;;;;;5040135;28;20275;-74
2023/11/28 12:34:14;;;;;;;1.92;1.83;;;0.60;99.90;;;;;;5040397;28;20228;-74
2023/11/28 12:36:44;;;;;;;2.22;2.13;;;0.60;99.90;;;;;;5045429;28;20220;-73
2023/11/28 12:39:14;;;;;;;1.88;1.77;;;0.70;99.90;;;;;;5045335;28;20199;-74
2023/11/28 12:41:42;;;;;;;1.48;1.38;;;0.70;99.90;;;;;;5046197;28;20524;-74
2023/11/28 12:44:09;;;;;;;2.78;2.47;;;0.70;99.90;;;;;;5047396;28;20270;-74
2023/11/28 12:46:37;;;;;;;6.47;2.88;;;0.60;99.90;;;;;;5043918;28;20283;-74
2023/11/28 12:49:04;;;;;;;4.10;3.25;;;0.60;99.90;;;;;;5050520;28;20200;-74
2023/11/28 12:51:33;;;;;;;2.25;2.15;;;0.70;99.90;;;;;;5041476;28;20270;-74
2023/11/28 12:54:07;;;;;;;1.65;1.55;;;0.60;99.90;;;;;;5044134;28;20224;-74
2023/11/28 12:56:35;;;;;;;6.15;3.72;;;0.70;99.90;;;;;;5039319;28;20195;-74
2023/11/28 12:59:03;;;;;;;2.03;1.83;;;0.60;99.90;;;;;;5043190;28;20303;-74
2023/11/28 13:01:31;;;;;;;2.05;1.88;;;0.60;99.90;;;;;;5046231;28;20208;-74